Gering, NE (69341)

4:10 PM MDT on October 21, 2014 (GMT -0600)
RAWS SCOTTS BLUFF NE US | Change Station
CLOSE
Current Station
Personal Weather Station
Location: Gering, NE
Elevation: 4224 ft
Nearby Weather Stations

Elev 4224 ft 41.83 °N, 103.71 °W | Updated 36 minutes ago

Partly Cloudy
Partly Cloudy
77 °F
Feels Like 78 °F
N
6
Wind Variable Wind from SE
Gusts 12.0 mph

Today
High -- | Low -- °F
--% Chance of Precip.
Yesterday
High -- | Low -- °F
Precip. -- in
7:14 AM 6:04 PM
Waning Crescent, 4% visible
Pressure 29.75 in
Visibility 10.0 miles
Clouds Clear
Heat Index 78 °F
Dew Point 42 °F
Humidity 29%
Rainfall 0.00 in
Snow Depth Not available.
UV 2 out of 12
Pollen 2.70 out of 12
Air Quality Not available.
Flu Activity Sporadic
METAR KBFF 212153Z AUTO 15009KT 10SM CLR 24/06 A2985 RMK AO2 SLP074 T02440056

More Conditions Fewer Conditions

Pressure 29.75 in
Visibility 10.0 miles
Clouds Clear
Heat Index 78 °F
Dew Point 42 °F
Humidity 29%
Rainfall 0.00 in
Snow Depth Not available.
UV 2 out of 12
Pollen 2.70 out of 12
Air Quality Not available.
Flu Activity Sporadic
METAR KBFF 212153Z AUTO 15009KT 10SM CLR 24/06 A2985 RMK AO2 SLP074 T02440056

More Conditions Fewer Conditions

10-Day Weather Forecast

Almanac

Astronomy

Oct. 21, 2014 Rise Set
Actual Time 7:14 AM MDT 6:04 PM MDT
Civil Twilight 6:45 AM MDT 6:32 PM MDT
Nautical Twilight 6:13 AM MDT 7:04 PM MDT
Astronomical Twilight 5:41 AM MDT 7:37 PM MDT
Moon 4:58 AM MDT 5:00 PM MDT
Length of Visible Light 11h 46m
Length of Day
10h 50m
Tomorrow will be 2m 38s shorter.
Waning Crescent, 4% of the Moon is Illuminated
Today
Waning Crescent
Oct 23
New
Oct 30
First Quarter
Nov 6
Full
Nov 14
Last Quarter

Today's Extremes

State Highs State Lows

Community

WunderPhotos

Upload Photos

1,763,798 photos uploaded!

Nearby

Snow Depth

Station Depth Elevation
No new snow has been reported.

Earthquake Activity

City Distance Mag. Time & Date
No recent earthquake activity has been reported nearby.
Minimum magnitude displayed is 2.5.

Coastal Water Temperatures

Place Temperature
No Stations Reporting

Nearby Weather Stations